Time;durP1;ratioP1;P1;durP2;ratioP2;P2;SDS_P1;SDS_P2;PMS_P1;PMS_P2;Temp;Humidity;BMP_temperature;BMP_pressure;BME280_temperature;BME280_humidity;BME280_pressure;Samples;Min_cycle;Max_cycle;Signal;HPM_P1;HPM_P2
2023/07/14 00:01:31;;;;;;;17.67;12.93;;;;;;;18.59;100.00;-18527.22;5066275;28;20102;-80
2023/07/14 00:03:57;;;;;;;18.60;13.30;;;;;;;18.50;100.00;-18524.91;5074271;28;20497;-77
2023/07/14 00:06:22;;;;;;;16.95;12.10;;;;;;;18.53;100.00;-18525.72;5087329;28;20038;-77
2023/07/14 00:08:49;;;;;;;18.23;12.18;;;;;;;18.51;100.00;-18525.16;5071556;28;20403;-77
2023/07/14 00:11:15;;;;;;;20.25;13.45;;;;;;;18.51;100.00;-18525.03;5072630;28;20503;-78
2023/07/14 00:13:41;;;;;;;19.75;13.70;;;;;;;18.47;100.00;-18524.22;5076414;28;20961;-78
2023/07/14 00:16:16;;;;;;;19.83;14.52;;;;;;;18.54;100.00;-18525.97;5076998;28;20028;-77
2023/07/14 00:18:42;;;;;;;19.77;13.60;;;;;;;18.62;100.00;-18528.03;5080014;28;20036;-77
2023/07/14 00:21:22;;;;;;;21.77;14.20;;;;;;;18.67;100.00;-18529.53;5075272;28;20169;-78
2023/07/14 00:23:48;;;;;;;19.98;14.02;;;;;;;18.64;100.00;-18528.72;5079313;28;20556;-77
2023/07/14 00:26:16;;;;;;;22.25;16.48;;;;;;;18.82;100.00;-18533.34;5072477;28;20097;-77
2023/07/14 00:28:42;;;;;;;23.90;15.27;;;;;;;18.80;100.00;-18532.81;5081056;28;20056;-77
2023/07/14 00:31:15;;;;;;;17.55;13.95;;;;;;;18.99;100.00;-18538.00;5075891;28;20036;-77
2023/07/14 00:33:43;;;;;;;18.40;11.93;;;;;;;19.24;100.00;-18544.53;5074251;28;20515;-78
2023/07/14 00:36:09;;;;;;;19.83;11.68;;;;;;;19.17;100.00;-18542.88;5071070;28;20028;-78
2023/07/14 00:38:35;;;;;;;14.98;10.10;;;;;;;19.17;100.00;-18542.75;5077094;28;20028;-78
2023/07/14 00:41:01;;;;;;;14.00;11.23;;;;;;;19.22;100.00;-18543.97;5079877;28;20456;-78
2023/07/14 00:43:29;;;;;;;17.17;10.35;;;;;;;19.26;100.00;-18545.06;5083770;28;20089;-78
2023/07/14 00:45:56;;;;;;;15.88;10.90;;;;;;;19.32;100.00;-18546.72;5072320;28;20036;-77
2023/07/14 00:48:27;;;;;;;19.58;12.35;;;;;;;19.64;100.00;-18555.16;5067326;28;20135;-78
2023/07/14 00:50:59;;;;;;;14.95;10.88;;;;;;;19.35;100.00;-18547.53;5078938;28;20040;-78
2023/07/14 00:53:40;;;;;;;24.23;12.60;;;;;;;19.20;100.00;-18543.56;5063827;28;20488;-77
2023/07/14 00:56:12;;;;;;;19.52;13.85;;;;;;;19.19;100.00;-18543.16;5084230;28;20055;-78
2023/07/14 00:58:49;;;;;;;23.35;14.55;;;;;;;19.29;100.00;-18546.03;5077257;28;20048;-78
2023/07/14 01:01:24;;;;;;;18.88;12.75;;;;;;;19.09;100.00;-18540.56;5076027;28;20043;-77
2023/07/14 01:03:55;;;;;;;20.98;13.80;;;;;;;19.19;100.00;-18543.31;5073136;28;20111;-78
2023/07/14 01:06:25;;;;;;;19.52;13.88;;;;;;;19.29;100.00;-18546.03;5077226;28;20522;-77
2023/07/14 01:09:03;;;;;;;20.92;14.52;;;;;;;19.39;100.00;-18548.59;5077114;28;20060;-77
2023/07/14 01:11:41;;;;;;;22.50;14.52;;;;;;;19.46;100.00;-18550.53;5075990;28;20043;-78
2023/07/14 01:14:12;;;;;;;20.88;15.70;;;;;;;19.52;100.00;-18552.16;5073516;28;20135;-78
2023/07/14 01:16:38;;;;;;;25.02;16.85;;;;;;;19.38;100.00;-18548.47;5065007;28;20055;-78
2023/07/14 01:19:17;;;;;;;25.20;17.80;;;;;;;19.39;100.00;-18548.59;5075787;28;20036;-77
2023/07/14 01:21:46;;;;;;;;;;;;;;;19.52;100.00;-18552.03;5075983;28;20139;-77
2023/07/14 01:24:20;;;;;;;31.65;19.80;;;;;;;19.38;100.00;-18548.34;5061157;28;19916;-77
2023/07/14 01:27:02;;;;;;;29.15;19.88;;;;;;;19.38;100.00;-18548.34;5071115;28;20041;-78
2023/07/14 01:29:28;;;;;;;29.60;20.90;;;;;;;19.43;100.00;-18549.69;5073389;28;20090;-77
2023/07/14 01:31:54;;;;;;;31.55;21.85;;;;;;;19.46;100.00;-18550.38;5060674;28;20044;-78
2023/07/14 01:34:20;;;;;;;32.72;19.90;;;;;;;19.34;100.00;-18547.38;5075630;28;20036;-77
2023/07/14 01:36:48;;;;;;;27.20;17.75;;;;;;;19.16;100.00;-18542.63;5073922;28;20063;-78
2023/07/14 01:39:14;;;;;;;31.05;17.13;;;;;;;19.06;100.00;-18539.91;5078109;28;20036;-78
2023/07/14 01:41:40;;;;;;;22.73;16.73;;;;;;;19.04;100.00;-18539.34;5074099;28;20039;-78
2023/07/14 01:44:07;;;;;;;25.15;16.10;;;;;;;19.07;100.00;-18540.03;5073205;28;20036;-77
2023/07/14 01:46:32;;;;;;;20.83;15.68;;;;;;;19.06;100.00;-18539.75;5073927;28;20036;-77
2023/07/14 01:48:58;;;;;;;23.88;16.50;;;;;;;19.04;100.00;-18539.34;5078227;28;20059;-77
2023/07/14 01:51:26;;;;;;;24.00;16.40;;;;;;;19.05;100.00;-18539.50;5075500;28;20160;-77
2023/07/14 01:54:02;;;;;;;22.20;15.97;;;;;;;19.12;100.00;-18541.38;5073262;28;20047;-78
2023/07/14 01:56:29;;;;;;;25.00;17.42;;;;;;;19.20;100.00;-18543.56;5059837;28;20127;-77
2023/07/14 01:59:03;;;;;;;25.65;17.35;;;;;;;19.17;100.00;-18542.75;5079830;28;20100;-77
2023/07/14 02:01:30;;;;;;;25.13;16.45;;;;;;;19.14;100.00;-18542.06;5076949;28;20101;-78
2023/07/14 02:03:57;;;;;;;25.25;17.70;;;;;;;19.07;100.00;-18540.03;5080540;28;20043;-78
2023/07/14 02:06:23;;;;;;;28.00;18.83;;;;;;;19.13;100.00;-18541.66;5075336;28;20074;-78
2023/07/14 02:08:50;;;;;;;30.10;19.52;;;;;;;19.13;100.00;-18541.81;5080378;28;20051;-77
2023/07/14 02:11:18;;;;;;;26.48;19.73;;;;;;;19.15;100.00;-18542.34;5062446;28;20048;-77
2023/07/14 02:13:44;;;;;;;25.65;18.90;;;;;;;19.24;100.00;-18544.53;5075821;28;20564;-78
2023/07/14 02:16:14;;;;;;;33.35;19.73;;;;;;;19.24;100.00;-18544.66;5076966;28;20396;-77
2023/07/14 02:18:42;;;;;;;28.38;18.48;;;;;;;19.11;100.00;-18541.25;5074833;28;20047;-77
2023/07/14 02:21:10;;;;;;;29.08;20.17;;;;;;;19.03;100.00;-18539.06;5072768;28;20036;-78
2023/07/14 02:23:38;;;;;;;26.73;18.27;;;;;;;19.04;100.00;-18539.34;5071755;28;20044;-77
2023/07/14 02:26:31;;;;;;;24.00;18.40;;;;;;;19.23;100.00;-18544.25;5078259;28;20032;-78
2023/07/14 02:28:57;;;;;;;29.77;19.17;;;;;;;19.10;100.00;-18540.97;5064084;28;20055;-77
2023/07/14 02:31:49;;;;;;;27.10;18.58;;;;;;;19.17;100.00;-18542.88;5073970;28;20515;-77
2023/07/14 02:34:15;;;;;;;28.35;18.35;;;;;;;18.92;100.00;-18536.22;5072784;28;20041;-77
2023/07/14 02:37:01;;;;;;;25.38;17.80;;;;;;;18.86;100.00;-18534.44;5079694;28;20125;-77
2023/07/14 02:39:34;;;;;;;25.33;18.02;;;;;;;18.83;100.00;-18533.63;5075262;28;20043;-76
2023/07/14 02:42:00;;;;;;;23.60;18.10;;;;;;;18.72;100.00;-18530.88;5081267;28;20511;-76
2023/07/14 02:44:37;;;;;;;24.65;17.58;;;;;;;19.02;100.00;-18538.81;5082407;28;20040;-78
2023/07/14 02:47:10;;;;;;;25.52;18.42;;;;;;;19.01;100.00;-18538.53;5081023;28;20036;-77
2023/07/14 02:49:36;;;;;;;30.45;18.02;;;;;;;18.91;100.00;-18535.81;5077542;28;20040;-77
2023/07/14 02:52:01;;;;;;;30.90;17.80;;;;;;;18.91;100.00;-18535.81;5076393;28;20078;-77
2023/07/14 02:54:27;;;;;;;27.50;18.73;;;;;;;18.98;100.00;-18537.72;5071717;28;20036;-78
2023/07/14 02:56:52;;;;;;;26.25;18.20;;;;;;;19.09;100.00;-18540.56;5074358;28;20044;-78
2023/07/14 02:59:18;;;;;;;25.02;17.90;;;;;;;18.89;100.00;-18535.41;5072012;28;20515;-76
2023/07/14 03:01:43;;;;;;;25.95;17.67;;;;;;;18.95;100.00;-18536.91;5078176;28;20036;-78
2023/07/14 03:04:09;;;;;;;29.77;19.58;;;;;;;19.07;100.00;-18540.16;5076718;28;20040;-78
2023/07/14 03:06:35;;;;;;;30.27;19.63;;;;;;;19.09;100.00;-18540.72;5074137;28;20102;-77
2023/07/14 03:09:01;;;;;;;29.88;20.40;;;;;;;18.98;100.00;-18537.72;5070360;28;20068;-77
2023/07/14 03:11:26;;;;;;;32.95;20.63;;;;;;;19.17;100.00;-18542.75;5079545;28;20089;-78
2023/07/14 03:13:52;;;;;;;29.75;19.92;;;;;;;19.12;100.00;-18541.38;5084645;28;20040;-77
2023/07/14 03:16:18;;;;;;;28.45;21.00;;;;;;;19.07;100.00;-18540.16;5082920;28;20437;-76
2023/07/14 03:18:43;;;;;;;33.28;20.08;;;;;;;19.04;100.00;-18539.34;5073990;28;20036;-77
2023/07/14 03:21:09;;;;;;;30.10;20.15;;;;;;;19.05;100.00;-18539.50;5075197;28;20069;-77
2023/07/14 03:23:35;;;;;;;28.38;18.75;;;;;;;18.96;100.00;-18537.16;5077777;28;20070;-77
2023/07/14 03:26:02;;;;;;;30.85;20.08;;;;;;;18.94;100.00;-18536.63;5077301;28;20060;-79
2023/07/14 03:28:29;;;;;;;32.42;18.60;;;;;;;18.89;100.00;-18535.41;5077964;28;20049;-78
2023/07/14 03:30:55;;;;;;;24.25;18.63;;;;;;;19.03;100.00;-18538.94;5082113;28;20036;-78
2023/07/14 03:33:20;;;;;;;30.40;19.13;;;;;;;19.03;100.00;-18538.94;5078185;28;20044;-77
2023/07/14 03:35:46;;;;;;;29.48;18.30;;;;;;;19.13;100.00;-18541.81;5071465;28;20569;-77
2023/07/14 03:38:11;;;;;;;29.17;19.08;;;;;;;19.10;100.00;-18540.97;5079036;28;20036;-77
2023/07/14 03:40:36;;;;;;;25.75;17.40;;;;;;;18.97;100.00;-18537.31;5058623;28;20450;-77
2023/07/14 03:43:05;;;;;;;26.95;18.23;;;;;;;18.93;100.00;-18536.50;5083404;28;20035;-78
2023/07/14 03:45:32;;;;;;;;;;;;;;;19.02;100.00;-18538.66;5081938;28;20172;-78
2023/07/14 03:47:57;;;;;;;28.73;17.83;;;;;;;18.79;100.00;-18532.53;5081628;28;19930;-77
2023/07/14 03:50:23;;;;;;;24.73;17.98;;;;;;;18.72;100.00;-18530.75;5077252;28;20043;-76
2023/07/14 03:52:49;;;;;;;27.40;17.42;;;;;;;18.70;100.00;-18530.34;5060901;28;20104;-77
2023/07/14 03:55:14;;;;;;;28.02;18.42;;;;;;;18.57;100.00;-18526.66;5080681;28;20040;-77
2023/07/14 03:57:40;;;;;;;26.50;19.42;;;;;;;18.59;100.00;-18527.22;5079003;28;20044;-77
2023/07/14 04:00:11;;;;;;;27.55;19.88;;;;;;;18.51;100.00;-18525.16;5059283;28;20574;-76
2023/07/14 04:02:38;;;;;;;28.17;18.92;;;;;;;18.59;100.00;-18527.34;5079640;28;20054;-77
2023/07/14 04:05:07;;;;;;;26.77;18.67;;;;;;;18.59;100.00;-18527.34;5079817;28;20051;-78
2023/07/14 04:07:33;;;;;;;31.80;19.88;;;;;;;18.58;100.00;-18527.06;5073602;28;20043;-77
2023/07/14 04:09:58;;;;;;;25.25;18.40;;;;;;;18.49;100.00;-18524.75;5081100;28;20048;-78
2023/07/14 04:12:23;;;;;;;27.38;17.65;;;;;;;18.53;100.00;-18525.72;5061827;28;20055;-77
2023/07/14 04:14:48;;;;;;;25.52;17.92;;;;;;;18.62;100.00;-18528.16;5072395;28;20032;-78
2023/07/14 04:17:14;;;;;;;26.23;16.48;;;;;;;18.55;100.00;-18526.25;5075041;28;20052;-78
2023/07/14 04:19:39;;;;;;;26.23;18.25;;;;;;;18.71;100.00;-18530.63;5059679;28;20946;-77
2023/07/14 04:22:04;;;;;;;22.60;16.63;;;;;;;18.66;100.00;-18529.13;5072934;28;20507;-77
2023/07/14 04:24:30;;;;;;;25.20;16.80;;;;;;;18.76;100.00;-18531.72;5085175;28;20054;-77
2023/07/14 04:26:55;;;;;;;24.70;16.77;;;;;;;18.83;100.00;-18533.75;5074142;28;20036;-76
2023/07/14 04:29:21;;;;;;;23.17;15.48;;;;;;;18.80;100.00;-18532.94;5076725;28;20093;-76
2023/07/14 04:31:46;;;;;;;21.35;14.23;;;;;;;18.82;100.00;-18533.34;5062527;28;20066;-77
2023/07/14 04:34:11;;;;;;;18.27;13.70;;;;;;;18.76;100.00;-18531.72;5073694;28;20072;-76
2023/07/14 04:36:37;;;;;;;19.67;14.10;;;;;;;19.00;100.00;-18538.13;5071162;28;20040;-76
2023/07/14 04:39:06;;;;;;;19.92;14.32;;;;;;;19.05;100.00;-18539.63;5074107;28;20132;-76
2023/07/14 04:41:32;;;;;;;;;;;;;;;19.05;100.00;-18539.63;5063284;28;20522;-76
2023/07/14 04:44:00;;;;;;;18.38;13.15;;;;;;;19.01;100.00;-18538.41;5073151;28;19999;-77
2023/07/14 04:46:25;;;;;;;16.27;12.90;;;;;;;19.01;100.00;-18538.41;5062832;28;20541;-76
2023/07/14 04:48:51;;;;;;;18.08;13.43;;;;;;;19.14;100.00;-18542.06;5074241;28;20046;-77
2023/07/14 04:51:16;;;;;;;16.80;12.90;;;;;;;19.19;100.00;-18543.31;5078412;28;20557;-77
2023/07/14 04:53:42;;;;;;;19.55;13.52;;;;;;;19.25;100.00;-18544.78;5080069;28;20047;-77
2023/07/14 04:56:07;;;;;;;19.60;12.63;;;;;;;19.24;100.00;-18544.66;5075886;28;20067;-77
2023/07/14 04:58:32;;;;;;;23.20;14.63;;;;;;;19.29;100.00;-18546.03;5081136;28;20043;-77
2023/07/14 05:00:58;;;;;;;18.77;13.43;;;;;;;19.31;100.00;-18546.44;5075793;28;20063;-77
2023/07/14 05:03:23;;;;;;;21.50;14.07;;;;;;;19.34;100.00;-18547.38;5075612;28;20048;-77
2023/07/14 05:05:48;;;;;;;17.75;13.07;;;;;;;19.29;100.00;-18545.88;5076235;28;20063;-77
2023/07/14 05:08:14;;;;;;;17.83;13.23;;;;;;;19.20;100.00;-18543.44;5075773;28;20040;-76
2023/07/14 05:10:39;;;;;;;17.15;12.82;;;;;;;19.24;100.00;-18544.53;5060146;28;20044;-76
2023/07/14 05:13:06;;;;;;;17.15;13.10;;;;;;;19.25;100.00;-18544.78;5060090;28;20222;-76
2023/07/14 05:15:32;;;;;;;20.42;13.02;;;;;;;19.12;100.00;-18541.38;5073114;28;20089;-76
2023/07/14 05:17:57;;;;;;;17.02;12.50;;;;;;;19.04;100.00;-18539.34;5062799;28;20040;-76
2023/07/14 05:20:23;;;;;;;20.42;14.77;;;;;;;19.03;100.00;-18539.06;5072500;28;20093;-76
2023/07/14 05:22:53;;;;;;;21.10;15.52;;;;;;;19.06;100.00;-18539.75;5077033;28;20044;-76
2023/07/14 05:25:20;;;;;;;19.98;14.63;;;;;;;19.15;100.00;-18542.34;5061645;28;20411;-77
2023/07/14 05:27:46;;;;;;;24.33;15.23;;;;;;;19.19;100.00;-18543.16;5072406;28;20052;-76
2023/07/14 05:30:18;;;;;;;23.20;15.38;;;;;;;19.41;100.00;-18549.03;5075243;28;20040;-76
2023/07/14 05:32:45;;;;;;;20.23;14.68;;;;;;;19.33;100.00;-18546.97;5060216;28;20047;-77
2023/07/14 05:35:11;;;;;;;23.70;15.43;;;;;;;19.31;100.00;-18546.56;5063494;28;20040;-76
2023/07/14 05:37:38;;;;;;;19.70;14.07;;;;;;;19.33;100.00;-18546.97;5079121;28;20480;-76
2023/07/14 05:40:10;;;;;;;20.35;13.20;;;;;;;19.39;100.00;-18548.59;5080607;28;20044;-77
2023/07/14 05:42:36;;;;;;;19.52;13.80;;;;;;;19.32;100.00;-18546.72;5061588;28;20659;-76
2023/07/14 05:45:03;;;;;;;17.13;13.80;;;;;;;19.47;100.00;-18550.66;5078461;28;20044;-76
2023/07/14 05:47:29;;;;;;;17.63;13.65;;;;;;;19.54;100.00;-18552.69;5074179;28;20033;-76
2023/07/14 05:49:54;;;;;;;20.70;14.48;;;;;;;19.57;100.00;-18553.38;5088250;28;20040;-77
2023/07/14 05:52:20;;;;;;;17.58;13.45;;;;;;;19.66;100.00;-18555.84;5082396;28;20045;-76
2023/07/14 05:54:47;;;;;;;18.27;13.25;;;;;;;19.71;100.00;-18557.19;5079152;28;20048;-76
2023/07/14 05:57:13;;;;;;;16.25;12.27;;;;;;;19.69;100.00;-18556.53;5079850;28;20035;-77
2023/07/14 05:59:38;;;;;;;17.23;12.88;;;;;;;19.79;100.00;-18559.38;5077321;28;20043;-77
2023/07/14 06:02:05;;;;;;;19.13;12.93;;;;;;;19.84;100.00;-18560.75;5076796;28;20512;-77
2023/07/14 06:04:36;;;;;;;19.63;12.98;;;;;;;19.86;100.00;-18561.16;5062330;28;20044;-77
2023/07/14 06:07:03;;;;;;;15.60;11.73;;;;;;;19.94;100.00;-18563.31;5080729;28;20040;-77
2023/07/14 06:09:34;;;;;;;15.77;11.90;;;;;;;20.03;100.00;-18565.78;5053436;28;20094;-77
2023/07/14 06:12:00;;;;;;;18.30;12.35;;;;;;;20.13;100.00;-18568.34;5063343;28;20759;-77
2023/07/14 06:14:26;;;;;;;19.58;12.98;;;;;;;20.40;100.00;-18575.56;5080772;28;20558;-77
2023/07/14 06:16:53;;;;;;;15.35;11.75;;;;;;;20.37;100.00;-18574.63;5075622;28;20043;-78
2023/07/14 06:19:19;;;;;;;17.65;11.52;;;;;;;20.46;100.00;-18577.22;5082674;28;20115;-77
2023/07/14 06:21:44;;;;;;;17.23;11.20;;;;;;;20.55;100.00;-18579.38;5076059;28;20377;-77
2023/07/14 06:24:10;;;;;;;17.00;12.52;;;;;;;20.57;100.00;-18579.94;5075351;28;20088;-77
2023/07/14 06:26:35;;;;;;;16.55;11.95;;;;;;;20.53;100.00;-18578.97;5076275;28;20148;-78
2023/07/14 06:29:00;;;;;;;19.08;11.60;;;;;;;20.47;100.00;-18577.34;5064200;28;20047;-77
2023/07/14 06:31:26;;;;;;;15.63;11.63;;;;;;;20.66;100.00;-18582.38;5063968;28;20475;-77
2023/07/14 06:33:51;;;;;;;17.95;11.00;;;;;;;20.83;100.00;-18587.00;5064251;28;20063;-79
2023/07/14 06:36:16;;;;;;;15.88;10.60;;;;;;;20.87;100.00;-18587.97;5076430;28;20058;-78
2023/07/14 06:38:42;;;;;;;16.05;11.00;;;;;;;20.98;100.00;-18590.81;5079375;28;20036;-76
2023/07/14 06:41:08;;;;;;;16.38;11.27;;;;;;;20.98;100.00;-18590.81;5081172;28;20511;-77
2023/07/14 06:43:33;;;;;;;16.08;10.90;;;;;;;20.82;100.00;-18586.59;5085926;28;20040;-77
2023/07/14 06:45:59;;;;;;;20.10;11.48;;;;;;;20.92;100.00;-18589.31;5084462;28;20042;-77
2023/07/14 06:48:27;;;;;;;21.65;10.98;;;;;;;20.94;100.00;-18590.00;5079660;28;20064;-77
2023/07/14 06:50:53;;;;;;;15.32;10.07;;;;;;;21.01;100.00;-18591.63;5082795;28;20032;-78
2023/07/14 06:53:19;;;;;;;13.07;9.85;;;;;;;20.99;100.00;-18591.22;5083207;28;20040;-78
2023/07/14 06:55:44;;;;;;;18.20;9.30;;;;;;;21.10;100.00;-18594.09;5064914;28;20032;-77
2023/07/14 06:58:11;;;;;;;16.35;10.25;;;;;;;21.08;100.00;-18593.53;5087042;28;20484;-78
2023/07/14 07:00:36;;;;;;;17.30;9.70;;;;;;;21.37;100.00;-18601.28;5071140;28;20139;-78
2023/07/14 07:03:03;;;;;;;18.52;10.02;;;;;;;21.26;100.00;-18598.28;5081716;28;20094;-77
2023/07/14 07:05:29;;;;;;;11.68;8.48;;;;;;;21.36;100.00;-18601.16;5078055;28;20124;-78
2023/07/14 07:07:55;;;;;;;11.85;8.68;;;;;;;21.57;100.00;-18606.72;5084393;28;20058;-78
2023/07/14 07:10:21;;;;;;;10.65;6.90;;;;;;;21.59;100.00;-18607.13;5077747;28;20119;-78
2023/07/14 07:12:46;;;;;;;13.43;7.40;;;;;;;21.56;100.00;-18606.31;5084930;28;20048;-77
2023/07/14 07:15:12;;;;;;;11.63;7.63;;;;;;;21.78;100.00;-18612.16;5063850;28;20036;-77
2023/07/14 07:17:38;;;;;;;11.93;6.97;;;;;;;21.75;100.00;-18611.47;5080182;28;20044;-78
2023/07/14 07:20:06;;;;;;;9.40;6.93;;;;;;;21.75;100.00;-18611.34;5073436;28;20036;-78
2023/07/14 07:22:33;;;;;;;13.20;7.28;;;;;;;21.79;100.00;-18612.56;5079119;28;20039;-77
2023/07/14 07:24:58;;;;;;;11.63;7.40;;;;;;;22.09;100.00;-18620.44;5083788;28;20495;-78
2023/07/14 07:27:24;;;;;;;9.43;7.03;;;;;;;22.12;100.00;-18621.13;5087534;28;20050;-77
2023/07/14 07:29:50;;;;;;;13.68;7.95;;;;;;;22.04;100.00;-18619.22;5082602;28;20089;-78
2023/07/14 07:32:16;;;;;;;14.48;7.65;;;;;;;21.99;100.00;-18617.88;5082415;28;20036;-78
2023/07/14 07:34:41;;;;;;;12.60;7.57;;;;;;;22.04;100.00;-18619.09;5070957;28;20040;-78
2023/07/14 07:37:07;;;;;;;10.65;7.60;;;;;;;22.24;100.00;-18624.53;5076505;28;20480;-77
2023/07/14 07:39:32;;;;;;;9.27;6.57;;;;;;;22.23;100.00;-18624.13;5061135;28;20035;-77
2023/07/14 07:41:58;;;;;;;11.43;5.97;;;;;;;22.40;100.00;-18628.75;5062738;28;20383;-77
2023/07/14 07:44:30;;;;;;;11.10;5.75;;;;;;;22.55;100.00;-18632.66;5080815;28;20040;-78
2023/07/14 07:46:59;;;;;;;6.07;3.95;;;;;;;22.64;100.00;-18635.13;5010603;28;20337;-77
2023/07/14 07:49:28;;;;;;;11.75;5.38;;;;;;;22.81;100.00;-18639.47;5024416;28;20053;-78
2023/07/14 07:51:53;;;;;;;12.07;4.63;;;;;;;22.88;100.00;-18641.38;5016070;28;20050;-77
2023/07/14 07:54:21;;;;;;;7.47;4.00;;;;;;;22.89;100.00;-18641.78;5019789;28;20049;-78
2023/07/14 07:56:49;;;;;;;12.45;4.45;;;;;;;23.00;100.00;-18644.63;5027110;28;20041;-78
2023/07/14 07:59:15;;;;;;;5.68;3.30;;;;;;;22.88;98.45;-18641.38;5022891;28;20394;-77
2023/07/14 08:01:48;;;;;;;7.72;4.18;;;;;;;22.84;100.00;-18640.28;5024317;28;20111;-76
2023/07/14 08:04:14;;;;;;;7.60;4.18;;;;;;;22.98;100.00;-18644.06;5002041;28;20045;-76
2023/07/14 08:06:43;;;;;;;8.82;4.00;;;;;;;23.06;98.86;-18646.25;5024079;28;20584;-77
2023/07/14 08:09:09;;;;;;;8.98;4.00;;;;;;;22.97;100.00;-18643.94;5021654;28;20049;-79
2023/07/14 08:11:35;;;;;;;9.38;3.92;;;;;;;22.98;97.46;-18644.22;4986378;28;20075;-77
2023/07/14 08:14:02;;;;;;;9.88;3.80;;;;;;;22.92;98.65;-18642.44;5024243;28;20645;-76
2023/07/14 08:16:29;;;;;;;6.22;3.10;;;;;;;22.99;96.94;-18644.34;4991145;28;20118;-77
2023/07/14 08:18:54;;;;;;;7.82;3.35;;;;;;;23.06;94.55;-18646.25;4965665;28;20046;-75
2023/07/14 08:21:20;;;;;;;7.55;3.60;;;;;;;22.93;95.56;-18642.72;5027982;28;20045;-77
2023/07/14 08:23:45;;;;;;;9.45;3.97;;;;;;;23.18;100.00;-18649.50;5023421;28;20091;-77
2023/07/14 08:26:12;;;;;;;9.07;4.35;;;;;;;23.29;100.00;-18652.22;5024372;28;20045;-76
2023/07/14 08:28:39;;;;;;;6.60;3.53;;;;;;;23.43;96.44;-18656.16;5019618;28;20437;-77
2023/07/14 08:31:07;;;;;;;9.57;4.10;;;;;;;23.64;96.70;-18661.72;5022514;28;20191;-77
2023/07/14 08:33:33;;;;;;;7.70;4.38;;;;;;;23.73;94.85;-18664.03;5013436;28;20041;-76
2023/07/14 08:36:00;;;;;;;8.48;4.40;;;;;;;23.73;99.27;-18664.03;5013878;28;20527;-76
2023/07/14 08:38:30;;;;;;;6.05;3.47;;;;;;;23.80;96.50;-18665.78;5014894;28;20103;-77
2023/07/14 08:41:14;;;;;;;10.15;3.92;;;;;;;23.68;92.97;-18662.53;5012310;28;20551;-76
2023/07/14 08:43:59;;;;;;;9.95;3.60;;;;;;;23.68;94.40;-18662.53;5068893;28;20484;-77
2023/07/14 08:46:30;;;;;;;7.72;3.00;;;;;;;23.74;90.34;-18664.16;5071922;28;20126;-77
2023/07/14 08:49:26;;;;;;;9.95;3.00;;;;;;;23.88;89.02;-18667.97;5069773;28;20175;-77
2023/07/14 08:52:06;;;;;;;7.05;3.35;;;;;;;23.88;86.59;-18667.97;5070318;28;20072;-77
2023/07/14 08:54:49;;;;;;;5.93;2.95;;;;;;;24.04;86.64;-18672.28;5069209;28;20041;-77
2023/07/14 08:57:22;;;;;;;6.40;3.28;;;;;;;24.21;85.85;-18676.63;5068867;28;20055;-77
2023/07/14 08:59:52;;;;;;;6.72;3.20;;;;;;;24.47;87.11;-18683.53;5056546;28;20035;-77
2023/07/14 09:02:23;;;;;;;4.78;2.50;;;;;;;24.32;80.22;-18679.75;5071809;28;20837;-77
2023/07/14 09:05:07;;;;;;;4.75;2.50;;;;;;;24.56;80.67;-18685.97;5072390;28;20040;-77
2023/07/14 09:07:32;;;;;;;5.30;2.67;;;;;;;24.75;77.83;-18691.00;5068387;28;20048;-76
2023/07/14 09:09:58;;;;;;;4.60;2.42;;;;;;;24.62;72.66;-18687.59;5074642;28;20054;-77
2023/07/14 09:12:38;;;;;;;5.75;2.50;;;;;;;24.52;71.16;-18684.91;5074047;28;20068;-77
2023/07/14 09:15:19;;;;;;;4.55;2.00;;;;;;;24.35;76.31;-18680.41;5049153;28;20094;-77
2023/07/14 09:17:54;;;;;;;4.75;2.42;;;;;;;24.38;76.06;-18681.09;5074923;28;20047;-77
2023/07/14 09:20:41;;;;;;;4.53;2.20;;;;;;;24.59;74.41;-18686.78;5075543;28;20100;-77
2023/07/14 09:23:24;;;;;;;3.92;2.10;;;;;;;24.69;73.63;-18689.38;5077397;28;20075;-77
2023/07/14 09:26:06;;;;;;;5.13;2.40;;;;;;;24.81;71.93;-18692.47;5081105;28;20697;-77
2023/07/14 09:28:35;;;;;;;5.25;2.15;;;;;;;24.83;75.70;-18693.16;5058239;28;21159;-77
2023/07/14 09:31:06;;;;;;;7.35;2.75;;;;;;;24.64;76.00;-18688.00;5077162;28;20522;-77
2023/07/14 09:33:55;;;;;;;6.85;3.00;;;;;;;24.73;73.96;-18690.59;5078137;28;20047;-77
2023/07/14 09:36:21;;;;;;;5.60;2.45;;;;;;;24.73;72.78;-18690.44;5076992;28;20040;-76
2023/07/14 09:38:54;;;;;;;7.47;2.65;;;;;;;24.66;73.24;-18688.69;5059674;28;20047;-77
2023/07/14 09:41:23;;;;;;;5.88;2.70;;;;;;;24.76;74.46;-18691.25;5076857;28;20036;-77
2023/07/14 09:43:49;;;;;;;8.48;3.17;;;;;;;24.93;74.30;-18695.88;5080481;28;20048;-77
2023/07/14 09:46:18;;;;;;;5.20;2.63;;;;;;;25.04;77.65;-18698.56;5077186;28;20070;-77
2023/07/14 09:49:03;;;;;;;6.80;2.70;;;;;;;24.91;72.24;-18695.31;5063133;28;20046;-77
2023/07/14 09:51:28;;;;;;;4.53;2.40;;;;;;;24.82;71.30;-18692.75;5070341;28;20133;-76
2023/07/14 09:54:00;;;;;;;6.82;2.90;;;;;;;24.95;68.59;-18696.41;5075856;28;20131;-78
2023/07/14 09:56:31;;;;;;;6.50;2.38;;;;;;;25.02;69.33;-18698.03;5076689;28;20051;-76
2023/07/14 09:59:02;;;;;;;8.10;3.28;;;;;;;24.99;71.10;-18697.34;5080305;28;20032;-77
2023/07/14 10:01:31;;;;;;;6.82;2.70;;;;;;;24.96;71.76;-18696.69;5073874;28;20036;-77
2023/07/14 10:04:07;;;;;;;6.55;2.65;;;;;;;25.22;73.01;-18703.44;5075614;28;20515;-77
2023/07/14 10:06:32;;;;;;;5.82;2.42;;;;;;;25.25;71.39;-18704.13;5074386;28;20492;-78
2023/07/14 10:09:04;;;;;;;7.97;2.83;;;;;;;25.24;68.22;-18703.84;5076127;28;20062;-77
2023/07/14 10:11:39;;;;;;;5.93;2.60;;;;;;;25.23;69.53;-18703.72;5077333;28;20039;-78
2023/07/14 10:14:27;;;;;;;5.53;2.55;;;;;;;25.48;67.73;-18710.22;5061713;28;20037;-78
2023/07/14 10:16:56;;;;;;;6.57;2.50;;;;;;;25.48;67.19;-18710.34;5072980;28;20658;-77
2023/07/14 10:19:31;;;;;;;4.97;2.28;;;;;;;25.52;65.67;-18711.31;5059064;28;20101;-76
2023/07/14 10:22:14;;;;;;;4.40;2.50;;;;;;;25.24;63.59;-18703.84;5076804;28;20040;-77
2023/07/14 10:24:45;;;;;;;5.55;2.10;;;;;;;25.17;64.60;-18702.22;5076851;28;20036;-76
2023/07/14 10:27:31;;;;;;;7.25;2.38;;;;;;;25.23;67.19;-18703.72;5084670;28;20039;-77
2023/07/14 10:30:05;;;;;;;4.90;2.22;;;;;;;24.97;69.59;-18696.94;5078234;28;20109;-77
2023/07/14 10:32:56;;;;;;;5.68;2.60;;;;;;;25.31;66.16;-18705.88;5083920;28;20048;-76
2023/07/14 10:35:25;;;;;;;4.25;2.13;;;;;;;25.16;65.34;-18701.97;5039574;28;20040;-77
2023/07/14 10:38:00;;;;;;;3.88;1.88;;;;;;;25.25;64.95;-18704.13;5085675;28;20119;-78
2023/07/14 10:40:33;;;;;;;4.82;2.13;;;;;;;25.35;65.89;-18706.97;5082168;28;20055;-78
2023/07/14 10:43:17;;;;;;;5.50;1.83;;;;;;;25.47;63.15;-18710.09;5069856;28;20043;-78
2023/07/14 10:45:52;;;;;;;4.15;2.13;;;;;;;25.57;62.38;-18712.78;5080822;28;20043;-78
2023/07/14 10:48:23;;;;;;;4.55;2.35;;;;;;;25.91;64.79;-18721.59;5068254;28;20035;-77
2023/07/14 10:51:08;;;;;;;6.03;2.33;;;;;;;25.90;62.06;-18721.31;5080378;28;20048;-76
2023/07/14 10:53:46;;;;;;;3.90;2.25;;;;;;;25.95;59.21;-18722.81;5079686;28;20054;-79
2023/07/14 10:56:22;;;;;;;9.00;2.58;;;;;;;25.83;60.75;-18719.56;5066242;28;20046;-78
2023/07/14 10:58:55;;;;;;;5.75;2.50;;;;;;;25.78;61.82;-18718.34;5077512;28;20032;-78
2023/07/14 11:01:53;;;;;;;5.22;2.40;;;;;;;25.67;60.00;-18715.50;5087114;28;20040;-78
2023/07/14 11:04:31;;;;;;;4.10;2.15;;;;;;;25.39;60.79;-18708.06;5071510;28;20044;-78
2023/07/14 11:06:58;;;;;;;4.82;2.17;;;;;;;25.60;67.75;-18713.47;5078354;28;20046;-79
2023/07/14 11:09:24;;;;;;;4.90;2.30;;;;;;;25.56;62.14;-18712.38;5077973;28;20047;-78
2023/07/14 11:12:26;;;;;;;5.00;2.00;;;;;;;25.79;64.48;-18718.59;5077603;28;20120;-78
2023/07/14 11:15:16;;;;;;;3.88;2.17;;;;;;;26.45;66.91;-18735.91;5076884;28;20048;-78
2023/07/14 11:17:59;;;;;;;4.88;2.20;;;;;;;26.76;61.56;-18744.16;5079667;28;20133;-79
2023/07/14 11:20:33;;;;;;;4.88;2.22;;;;;;;26.37;60.72;-18733.75;5073343;28;20044;-77